• Join FlightAware (Why Join?)
  • Login
  • US Flag 
08:32AM EDT


 

Airport Tracker/Info


-or-


 

Live Flight TrackerFlight Track Log ✈ N409CF ✈ 16-Jun-2013 ✈ KRME - KFRG

Flight Track Log - Related Links

Times and Time Zones

All times are in EDT time to prevent confusion due to time zone crossing. See the N409CF flight status page for this flight to view local times or setup timezone preferences in your user account.

Time Position Orientation Groundspeed Altitude Reporting Facility
EDT Latitude Longitude Course Direction KTS MPH feet Rate Location/Type
11:03AM 43.2086 -75.3772 133° Southeast 100 115 1,100  Level Boston Center
11:04AM 43.1928 -75.3536 133° Southeast 106 122 1,600 540 Climbing Boston Center
11:05AM 43.1703 -75.3356 150° Southeast 107 123 2,100 480 Climbing Boston Center
11:06AM 43.1458 -75.3086 141° Southeast 116 133 2,600 420 Climbing Boston Center
11:07AM 43.1192 -75.2875 150° Southeast 114 131 3,000 420 Climbing Boston Center
11:08AM 43.0947 -75.2664 148° Southeast 111 128 3,500 420 Climbing Boston Center
11:09AM 43.0661 -75.2481 155° Southeast 111 128 3,900 360 Climbing Boston Center
11:10AM 43.0417 -75.2214 141° Southeast 114 131 4,300 360 Climbing Boston Center
11:11AM 43.0172 -75.2033 152° Southeast 109 125 4,700 420 Climbing Boston Center
11:12AM 42.9864 -75.1792 150° Southeast 104 120 5,300 420 Climbing Boston Center
11:13AM 42.9658 -75.1642 152° Southeast 101 116 5,600 420 Climbing Boston Center
11:14AM 42.9375 -75.1372 145° Southeast 102 117 6,100 480 Climbing Boston Center
11:15AM 42.9169 -75.1194 148° Southeast 119 137 6,500 360 Climbing Boston Center
11:16AM 42.8925 -75.1014 152° Southeast 114 131 6,900 300 Climbing Boston Center
11:17AM 42.8658 -75.0831 153° Southeast 109 125 7,200 60 Climbing Boston Center
11:18AM 42.8433 -75.0622 146° Southeast 115 132 7,100 -120 Descending Boston Center
11:19AM 42.8044 -75.0325 151° Southeast 120 138 7,000  Descending Boston Center
11:20AM 42.7736 -75.0056 147° Southeast 120 138 7,100  Climbing Boston Center
11:21AM 42.7511 -74.9878 150° Southeast 125 144 7,000 -60 Descending Boston Center
11:22AM 42.7103 -74.9578 152° Southeast 125 144 7,000  Level Boston Center
11:23AM 42.6794 -74.9311 148° Southeast 130 150 7,000  Level Boston Center
11:24AM 42.6486 -74.9072 150° Southeast 135 155 7,000  Level Boston Center
11:25AM 42.6181 -74.8806 147° Southeast 135 155 7,100  Climbing Boston Center
11:26AM 42.5872 -74.8569 151° Southeast 135 155 7,000 -60 Descending Boston Center
11:27AM 42.5503 -74.8272 149° Southeast 135 155 7,000  Level Boston Center
11:28AM 42.5197 -74.8008 148° Southeast 135 155 7,100  Climbing Boston Center
11:29AM 42.4869 -74.7742 149° Southeast 139 160 7,100  Level Boston Center
11:30AM 42.4583 -74.7478 146° Southeast 139 160 7,100  Level Boston Center
11:31AM 42.4192 -74.7181 151° Southeast 139 160 7,100  Level Boston Center
11:32AM 42.3883 -74.6944 151° Southeast 139 160 7,100 -60 Level Boston Center
11:33AM 42.3514 -74.6650 149° Southeast 139 160 7,000 -60 Descending Boston Center
11:34AM 42.3228 -74.6417 149° Southeast 139 160 7,000  Level Boston Center
11:35AM 42.2858 -74.6178 154° Southeast 134 154 7,000  Level Boston Center
11:36AM 42.2594 -74.5722 128° Southeast 134 154 7,000  Level Boston Center
11:37AM 42.2375 -74.5208 120° Southeast 147 169 7,000  Level Boston Center
11:38AM 42.2133 -74.4697 123° Southeast 159 183 7,000  Level Boston Center
11:39AM 42.1872 -74.4183 124° Southeast 159 183 7,000  Level Boston Center
11:40AM 42.1672 -74.3756 122° Southeast 161 185 7,000  Level Boston Center
11:41AM 42.1389 -74.3217 125° Southeast 154 177 7,000  Level Boston Center
11:42AM 42.1167 -74.2789 125° Southeast 159 183 7,000  Level Boston Center
11:43AM 42.0903 -74.2278 125° Southeast 159 183 7,000  Level Boston Center
11:44AM 42.0681 -74.1825 123° Southeast 159 183 7,000  Level Boston Center
11:45AM 42.0458 -74.1397 125° Southeast 159 183 7,100  Climbing Boston Center
11:46AM 42.0156 -74.0803 124° Southeast 159 183 7,100  Level Boston Center
11:47AM 41.9931 -74.0378 125° Southeast 154 177 7,100 -60 Level Boston Center
11:48AM 41.9669 -73.9814 122° Southeast 154 177 7,000  Descending Boston Center
11:49AM 41.9444 -73.9389 125° Southeast 154 177 7,100  Climbing Boston Center
11:50AM 41.9161 -73.8853 125° Southeast 154 177 7,100  Level Boston Center
11:51AM 41.8936 -73.8431 126° Southeast 154 177 7,100  Level Boston Center
11:52AM 41.8733 -73.8033 124° Southeast 154 177 7,100  Level Boston Center
11:53AM 41.8447 -73.7442 123° Southeast 154 177 7,100 -60 Level Boston Center
11:54AM 41.8161 -73.6908 126° Southeast 154 177 7,000 -300 Descending Boston Center
11:55AM 41.7936 -73.6514 127° Southeast 160 184 6,600 -480 Descending Boston Center
11:56AM 41.7547 -73.5978 134° Southeast 161 185 6,100 -300 Descending Boston Center
11:57AM 41.7214 -73.5806 159° South 149 171 6,100  Level Boston Center
11:58AM 41.6822 -73.5603 159° South 139 160 6,100  Level Boston Center
11:59AM 41.6511 -73.5431 158° South 139 160 6,100 -120 Level Boston Center
12:01PM 41.5667 -73.5000 159° South 145 167 5,900 -240 Descending New York TRACON
12:02PM 41.5333 -73.4667 143° Southeast 163 188 5,400 -540 Descending New York TRACON
12:03PM 41.4833 -73.4333 153° Southeast 165 190 4,900 -540 Descending New York TRACON
12:04PM 41.4500 -73.4000 143° Southeast 162 186 4,400 -420 Descending New York TRACON
12:05PM 41.4167 -73.3667 143° Southeast 155 178 4,100 -180 Descending New York TRACON
12:06PM 41.3833 -73.3333 143° Southeast 142 163 4,100  Level New York TRACON
12:07PM 41.3500 -73.3167 159° South 132 152 4,100  Level New York TRACON
12:08PM 41.3333 -73.2833 124° Southeast 137 158 4,100  Level New York TRACON
12:09PM 41.3000 -73.2500 143° Southeast 135 155 4,100  Level New York TRACON
12:10PM 41.2667 -73.2167 143° Southeast 139 160 4,100  Level New York TRACON
12:11PM 41.2333 -73.2000 159° South 136 157 4,100  Level New York TRACON
12:12PM 41.2000 -73.1667 143° Southeast 138 159 4,100  Level New York TRACON
12:13PM 41.1833 -73.1333 124° Southeast 138 159 4,100  Level New York TRACON
12:14PM 41.1500 -73.1000 143° Southeast 143 165 4,100  Level New York TRACON
12:15PM 41.1167 -73.0667 143° Southeast 144 166 4,100  Level New York TRACON
12:16PM 41.1000 -73.0333 124° Southeast 145 167 4,100  Level New York TRACON
12:17PM 41.0667 -73.0000 143° Southeast 152 175 4,100  Level New York TRACON
12:18PM 41.0333 -73.0167 201° Southwest 116 133 4,100  Level New York TRACON
12:19PM 41.0167 -73.0500 236° Southwest 120 138 4,100  Level New York TRACON
12:20PM 40.9833 -73.0833 217° Southwest 115 132 4,100 -300 Level New York TRACON
12:21PM 40.9667 -73.1000 217° Southwest 131 151 3,500 -540 Descending New York TRACON
12:22PM 40.9333 -73.1333 217° Southwest 136 157 3,100 -240 Descending New York TRACON
12:23PM 40.9000 -73.1667 217° Southwest 125 144 3,100  Level New York TRACON
12:24PM 40.8833 -73.2000 237° Southwest 121 139 3,100  Level New York TRACON
12:25PM 40.9000 -73.2333 303° West 140 161 3,100 -300 Level New York TRACON
12:26PM 40.9167 -73.2667 303° West 146 168 2,600 -360 Descending New York TRACON
12:27PM 40.9167 -73.3167 270° West 146 168 2,400 -300 Descending New York TRACON
12:28PM 40.9167 -73.3500 270° West 139 160 2,100 -180 Descending New York TRACON
12:29PM 40.9167 -73.4000 270° West 125 144 2,100  Level New York TRACON
12:30PM 40.8833 -73.4167 201° Southwest 132 152 2,100 -300 Level New York TRACON
12:31PM 40.8500 -73.4167 180° South 134 154 1,600 -300 Descending New York TRACON
12:32PM 40.8167 -73.4167 180° South 109 125 1,600 -60 Level New York TRACON
12:33PM 40.7833 -73.4167 180° South 99 114 1,500 -360 Descending New York TRACON
12:34PM 40.7667 -73.4167 180° South 91 105 900 -600 Descending New York TRACON
12:36PM 40.7288 -73.4134 180° South  Level Estimated
12:43PM 40.7288 -73.4134 180° South  Level Estimated
12:44PM 40.7288 -73.4134 180° South  Level Estimated